createdAt,value
2023-04-18T00:00:28.336Z,5.45
2023-04-18T00:05:30.093Z,5.32
2023-04-18T00:10:32.813Z,5.16
2023-04-18T00:15:37.409Z,5.04
2023-04-18T00:20:39.282Z,4.92
2023-04-18T00:25:40.978Z,4.95
2023-04-18T00:30:42.633Z,4.89
2023-04-18T00:35:44.423Z,4.82
2023-04-18T00:40:46.085Z,4.80
2023-04-18T00:45:47.661Z,4.76
2023-04-18T00:50:49.476Z,4.70
2023-04-18T00:55:51.421Z,4.58
2023-04-18T01:00:54.708Z,4.60
2023-04-18T01:05:57.506Z,4.69
2023-04-18T01:11:00.045Z,4.77
2023-04-18T01:16:01.750Z,4.88
2023-04-18T01:21:06.380Z,5.09
2023-04-18T01:26:08.228Z,5.26
2023-04-18T01:31:09.996Z,5.45
2023-04-18T01:36:11.688Z,5.58
2023-04-18T01:41:13.373Z,5.57
2023-04-18T01:46:17.303Z,5.71
2023-04-18T01:51:18.945Z,5.84
2023-04-18T01:56:20.973Z,6.00
2023-04-18T02:01:22.899Z,5.84
2023-04-18T02:06:24.651Z,5.91
2023-04-18T02:11:26.343Z,6.31
2023-04-18T02:16:28.188Z,6.38
2023-04-18T02:21:30.729Z,6.41
2023-04-18T02:26:32.425Z,6.43
2023-04-18T02:31:34.089Z,6.48
2023-04-18T02:36:35.894Z,6.52
2023-04-18T02:41:39.346Z,6.51
2023-04-18T02:46:41.075Z,6.49
2023-04-18T02:51:46.929Z,6.60
2023-04-18T02:56:49.375Z,6.66
2023-04-18T03:02:14.065Z,6.72
2023-04-18T03:07:23.016Z,6.73
2023-04-18T03:12:26.389Z,6.72
2023-04-18T03:17:28.639Z,6.73
2023-04-18T03:22:30.546Z,6.75
2023-04-18T03:27:33.985Z,6.73
2023-04-18T03:32:36.550Z,6.74
2023-04-18T03:37:38.535Z,6.69
2023-04-18T03:42:40.848Z,6.69
2023-04-18T03:47:42.516Z,6.67
2023-04-18T03:52:44.700Z,6.66
2023-04-18T03:57:47.553Z,6.66
2023-04-18T04:02:56.888Z,6.65
2023-04-18T04:07:58.942Z,6.64
2023-04-18T04:13:00.876Z,6.64
2023-04-18T04:18:06.207Z,6.60
2023-04-18T04:23:10.452Z,6.64
2023-04-18T04:28:14.551Z,6.66
2023-04-18T04:33:33.234Z,6.62
2023-04-18T04:38:38.497Z,6.59
2023-04-18T04:43:41.293Z,6.58
2023-04-18T04:48:44.041Z,6.59
2023-04-18T04:53:45.803Z,6.59
2023-04-18T04:58:47.724Z,6.60
2023-04-18T05:04:00.613Z,6.64
2023-04-18T05:09:02.406Z,6.63
2023-04-18T05:14:04.065Z,6.70
2023-04-18T05:19:05.927Z,6.67
2023-04-18T05:24:08.009Z,6.73
2023-04-18T05:29:09.865Z,6.79
2023-04-18T05:34:11.787Z,6.89
2023-04-18T05:39:14.108Z,6.70
2023-04-18T05:44:17.014Z,6.62
2023-04-18T05:49:19.732Z,6.65
2023-04-18T05:54:21.717Z,6.62
2023-04-18T05:59:23.577Z,6.59
2023-04-18T06:04:25.599Z,6.56
2023-04-18T06:09:27.357Z,6.59
2023-04-18T06:14:29.473Z,6.54
2023-04-18T06:19:31.414Z,6.50
2023-04-18T06:24:33.282Z,6.64
2023-04-18T06:29:36.206Z,6.53
2023-04-18T06:34:40.757Z,6.92
2023-04-18T06:39:44.767Z,7.11
2023-04-18T06:44:46.621Z,6.97
2023-04-18T06:49:48.314Z,6.73
2023-04-18T06:54:49.862Z,6.79
2023-04-18T06:59:51.473Z,7.04
2023-04-18T07:04:53.139Z,7.19
2023-04-18T07:09:55.017Z,7.37
2023-04-18T07:14:56.611Z,7.62
2023-04-18T07:19:58.576Z,8.01
2023-04-18T07:25:00.382Z,8.15
2023-04-18T07:30:02.778Z,8.20
2023-04-18T07:35:04.882Z,8.22
2023-04-18T07:40:07.058Z,8.07
2023-04-18T07:45:08.936Z,8.30
2023-04-18T07:50:10.979Z,8.48
2023-04-18T07:55:12.546Z,8.74
2023-04-18T08:00:14.798Z,8.81
2023-04-18T08:05:16.607Z,8.80
2023-04-18T08:10:18.257Z,8.86
2023-04-18T08:15:22.011Z,8.87
2023-04-18T08:20:23.697Z,8.95
2023-04-18T08:25:25.324Z,8.98
2023-04-18T08:30:26.949Z,8.84
2023-04-18T08:35:28.545Z,8.77
2023-04-18T08:40:30.441Z,8.95
2023-04-18T08:45:33.434Z,9.00
2023-04-18T08:50:35.275Z,9.03
2023-04-18T08:55:37.500Z,9.10
2023-04-18T09:00:39.502Z,9.30
2023-04-18T09:06:04.254Z,9.40
2023-04-18T09:11:29.415Z,9.60
2023-04-18T09:16:47.092Z,9.88
2023-04-18T09:21:58.116Z,10.09
2023-04-18T09:27:01.368Z,10.28
2023-04-18T09:32:03.375Z,10.32
2023-04-18T09:37:14.971Z,10.31
2023-04-18T09:42:17.323Z,10.67
2023-04-18T09:47:18.884Z,10.87
2023-04-18T09:52:21.275Z,11.19
2023-04-18T09:57:27.434Z,11.69
2023-04-18T10:02:35.354Z,12.03
2023-04-18T10:07:38.179Z,11.86
2023-04-18T10:12:41.653Z,11.60
2023-04-18T10:18:03.588Z,11.47
2023-04-18T10:23:35.079Z,11.88
2023-04-18T10:28:53.151Z,12.01
2023-04-18T10:39:21.141Z,13.00
2023-04-18T10:44:23.562Z,13.22
2023-04-18T10:49:28.323Z,13.18
2023-04-18T10:54:42.126Z,13.56
2023-04-18T10:59:48.053Z,13.22
2023-04-18T11:04:56.022Z,13.41
2023-04-18T11:09:57.644Z,13.05
2023-04-18T11:15:01.398Z,13.21
2023-04-18T11:20:08.720Z,13.31
2023-04-18T11:25:10.891Z,13.66
2023-04-18T11:30:13.770Z,13.73
2023-04-18T11:35:16.086Z,13.93
2023-04-18T11:40:17.759Z,13.64
2023-04-18T11:45:19.380Z,13.89
2023-04-18T11:50:20.984Z,14.07
2023-04-18T11:55:25.139Z,14.02
2023-04-18T12:00:34.505Z,14.19
2023-04-18T12:05:39.026Z,14.57
2023-04-18T12:10:49.084Z,14.15
2023-04-18T12:15:50.581Z,13.57
2023-04-18T12:20:54.248Z,13.92
2023-04-18T12:26:01.289Z,14.46
2023-04-18T12:31:05.888Z,14.53
2023-04-18T12:36:08.631Z,14.65
2023-04-18T12:41:10.218Z,14.74
2023-04-18T12:46:11.811Z,14.80
2023-04-18T12:51:13.588Z,14.66
2023-04-18T12:56:15.488Z,14.46
2023-04-18T13:01:17.218Z,14.26
2023-04-18T13:06:18.891Z,14.00
2023-04-18T13:11:22.417Z,13.92
2023-04-18T13:16:24.049Z,14.18
2023-04-18T13:21:26.000Z,14.59
2023-04-18T13:26:27.594Z,14.95
2023-04-18T13:31:29.515Z,15.45
2023-04-18T13:36:31.774Z,15.40
2023-04-18T13:41:35.970Z,15.50
2023-04-18T13:46:37.610Z,15.88
2023-04-18T13:51:39.268Z,15.43
2023-04-18T13:56:41.848Z,14.98
2023-04-18T14:01:43.502Z,14.79
2023-04-18T14:06:45.831Z,14.71
2023-04-18T14:11:48.621Z,14.73
2023-04-18T14:16:50.294Z,14.98
2023-04-18T14:21:51.906Z,15.16
2023-04-18T14:26:53.493Z,15.23
2023-04-18T14:31:55.039Z,15.37
2023-04-18T14:36:56.622Z,15.34
2023-04-18T14:41:58.178Z,15.02
2023-04-18T14:46:59.799Z,14.97
2023-04-18T14:52:01.502Z,14.76
2023-04-18T14:57:03.062Z,14.65
2023-04-18T15:02:04.909Z,14.87
2023-04-18T15:07:06.913Z,15.24
2023-04-18T15:12:08.534Z,15.35
2023-04-18T15:17:10.095Z,15.21
2023-04-18T15:22:11.878Z,15.00
2023-04-18T15:27:13.527Z,15.01
2023-04-18T15:32:15.214Z,15.02
2023-04-18T15:37:16.922Z,15.04
2023-04-18T15:42:18.662Z,14.71
2023-04-18T15:47:20.690Z,14.62
2023-04-18T15:52:22.272Z,14.52
2023-04-18T15:57:23.951Z,14.51
2023-04-18T16:02:26.324Z,14.56
2023-04-18T16:07:27.897Z,14.71
2023-04-18T16:12:29.648Z,14.76
2023-04-18T16:17:31.315Z,14.80
2023-04-18T16:22:32.914Z,14.63
2023-04-18T16:27:34.455Z,14.47
2023-04-18T16:32:38.078Z,14.25
2023-04-18T16:37:40.450Z,14.21
2023-04-18T16:42:42.014Z,13.88
2023-04-18T16:47:43.604Z,13.74
2023-04-18T16:52:45.299Z,13.62
2023-04-18T16:57:46.829Z,13.56
2023-04-18T17:07:51.776Z,13.44
2023-04-18T17:12:53.695Z,13.38
2023-04-18T17:17:56.516Z,13.32
2023-04-18T17:22:58.148Z,13.29
2023-04-18T17:28:02.167Z,13.29
2023-04-18T17:33:03.875Z,13.28
2023-04-18T17:38:05.426Z,13.41
2023-04-18T17:43:06.943Z,12.96
2023-04-18T17:48:08.536Z,12.61
2023-04-18T17:53:11.983Z,12.36
2023-04-18T17:58:13.566Z,12.27
2023-04-18T18:03:16.040Z,12.31
2023-04-18T18:08:17.709Z,12.28
2023-04-18T18:13:19.314Z,12.30
2023-04-18T18:18:21.085Z,12.36
2023-04-18T18:23:23.245Z,12.34
2023-04-18T18:28:24.934Z,12.27
2023-04-18T18:33:26.549Z,12.16
2023-04-18T18:38:28.098Z,12.02
2023-04-18T18:43:29.618Z,11.98
2023-04-18T18:48:34.172Z,11.88
2023-04-18T18:53:37.202Z,11.78
2023-04-18T18:58:40.476Z,11.70
2023-04-18T19:03:42.555Z,11.68
2023-04-18T19:08:44.294Z,11.61
2023-04-18T19:13:45.907Z,11.59
2023-04-18T19:18:49.193Z,11.50
2023-04-18T19:23:50.741Z,11.45
2023-04-18T19:28:52.873Z,11.38
2023-04-18T19:33:54.401Z,11.26
2023-04-18T19:38:55.911Z,11.09
2023-04-18T19:43:57.455Z,11.02
2023-04-18T19:48:59.033Z,10.83
2023-04-18T19:54:00.653Z,10.78
2023-04-18T19:59:02.466Z,10.66
2023-04-18T20:04:04.327Z,10.43
2023-04-18T20:09:06.321Z,10.35
2023-04-18T20:14:08.121Z,10.41
2023-04-18T20:19:12.682Z,10.43
2023-04-18T20:24:15.590Z,10.46
2023-04-18T20:29:17.194Z,10.51
2023-04-18T20:34:19.058Z,10.54
2023-04-18T20:39:20.600Z,10.49
2023-04-18T20:44:22.281Z,10.51
2023-04-18T20:49:23.878Z,10.54
2023-04-18T20:54:25.635Z,10.50
2023-04-18T20:59:27.202Z,10.48
2023-04-18T21:04:29.446Z,10.47
2023-04-18T21:09:36.313Z,10.40
2023-04-18T21:14:39.705Z,10.36
2023-04-18T21:19:41.257Z,10.34
2023-04-18T21:24:43.937Z,10.32
2023-04-18T21:29:48.694Z,10.30
2023-04-18T21:34:50.337Z,10.26
2023-04-18T21:39:52.192Z,10.26
2023-04-18T21:44:54.864Z,10.26
2023-04-18T21:49:56.548Z,10.24
2023-04-18T21:54:59.251Z,10.18
2023-04-18T22:00:00.772Z,10.15
2023-04-18T22:05:02.962Z,10.10
2023-04-18T22:10:06.043Z,10.03
2023-04-18T22:15:08.078Z,10.01
2023-04-18T22:20:10.822Z,9.98
2023-04-18T22:25:12.407Z,9.98
2023-04-18T22:30:14.353Z,9.96
2023-04-18T22:35:16.167Z,9.93
2023-04-18T22:40:17.969Z,9.91
2023-04-18T22:45:19.765Z,9.88
2023-04-18T22:50:21.338Z,9.84
2023-04-18T22:55:23.005Z,9.78
2023-04-18T23:00:24.566Z,9.75
2023-04-18T23:05:26.223Z,9.72
2023-04-18T23:10:28.151Z,9.72
2023-04-18T23:15:29.878Z,9.68
2023-04-18T23:20:31.633Z,9.59
2023-04-18T23:25:33.607Z,9.58
2023-04-18T23:30:36.821Z,9.58
2023-04-18T23:35:38.397Z,9.52
2023-04-18T23:40:39.915Z,9.51
2023-04-18T23:45:41.413Z,9.49
2023-04-18T23:50:46.296Z,9.49
2023-04-18T23:55:50.604Z,9.49
